Holder, FL (34445)

11:25 AM EDT on August 21, 2014 (GMT -0400)
Beverly Hills | Change Station
CLOSE
Current Station
Personal Weather Station
Location: Citrus County, FL
Elevation: 62 ft
Nearby Weather Stations

Elev 62 ft 28.91 °N, 82.45 °W | Updated 1 second ago

Clear
Clear
88.8 °F
Feels Like 100 °F
N
0.0
Wind Variable Wind from ENE
Gusts 0.0 mph

Today
High -- | Low -- °F
--% Chance of Precip.
Yesterday
High -- | Low -- °F
Precip. -- in
7:01 AM 8:03 PM
Waning Crescent, 14% visible
Pressure 30.14 in
Visibility 10.0 miles
Clouds Clear
Heat Index 100 °F
Dew Point 76 °F
Humidity 66%
Rainfall 0.00 in
Snow Depth Not available.
UV 10 out of 12
Pollen 4.50 out of 12
Air Quality Not available.
Flu Activity Not available.
METAR KCGC 211515Z AUTO 00000KT 10SM CLR 31/22 A3014 RMK AO2 PWINO

More Conditions Fewer Conditions

Pressure 30.14 in
Visibility 10.0 miles
Clouds Clear
Heat Index 100 °F
Dew Point 76 °F
Humidity 66%
Rainfall 0.00 in
Snow Depth Not available.
UV 10 out of 12
Pollen 4.50 out of 12
Air Quality Not available.
Flu Activity Not available.
METAR KCGC 211515Z AUTO 00000KT 10SM CLR 31/22 A3014 RMK AO2 PWINO

More Conditions Fewer Conditions

10-Day Weather Forecast

Almanac

Astronomy

Aug. 21, 2014 Rise Set
Actual Time 7:01 AM EDT 8:03 PM EDT
Civil Twilight 6:37 AM EDT 8:27 PM EDT
Nautical Twilight 6:08 AM EDT 8:56 PM EDT
Astronomical Twilight 5:38 AM EDT 9:26 PM EDT
Moon 3:39 AM EDT 5:24 PM EDT
Length of Visible Light 13h 50m
Length of Day
13h 01m
Tomorrow will be 1m 34s shorter.
Waning Crescent, 14% of the Moon is Illuminated
Today
Waning Crescent
Aug 25
New
Sep 2
First Quarter
Sep 8
Full
Sep 15
Last Quarter

Today's Extremes

State Highs State Lows

Community

WunderPhotos

Upload Photos

1,745,947 photos uploaded!

Nearby

Snow Depth

Station Depth Elevation
No new snow has been reported.

Earthquake Activity

City Distance Mag. Time & Date
No recent earthquake activity has been reported nearby.
Minimum magnitude displayed is 2.5.

Coastal Water Temperatures

Place Temperature
No Stations Reporting

Nearby Weather Stations